Aviation Digital Data Service (ADDS)

Output produced by METARs form (0840 UTC 18 February 2019)
found at http://www.aviationweather.gov/metar/data/
 
Forecast for: AGGM (MUNDA/NEW GEORGI, SB)
Text: TAF AGGM 180500Z 1806/1906 23015KT 9999 SCT017
Forecast period: 0600 UTC 18 February 2019 to 0600 UTC 19 February 2019
Forecast type: FROM: standard forecast or significant change
Winds: from the SW (230 degrees) at 17 MPH (15 knots; 7.7 m/s)
Visibility: 6 or more miles 10+ km)
Ceiling: at least 12,000 feet AGL
Clouds: scattered clouds at 1700 feet AGL
Weather: no significant weather forecast for this period
Text: PROB40 INTER 1806/1809 5000 TSSH BKN017 FEW018CB Q 1004 1006 1007 1005
Forecast period: 0600 to 0900 UTC 18 February 2019
Forecast type: TEMPORARY: The following changes expected for less than half the time period
Visibility: 3 miles (5 km)
Ceiling: 1700 feet AGL
Clouds: broken clouds at 1700 feet AGL
few clouds at 1800 feet AGL
Weather: SH TS  (showers, thunderstorm)